| time (UTC) | temp F | wind direction | speed knots | gust knots | rain 1hr in | rain 24hr in | rain mn in | humidity % | barometer mb |
| 20260504202314 | 86 | 222 | 0.9 | 1.7 | 0.00 | 0.00 | 0.00 | 59 | 1017.3 |
| 20260504201810 | 86 | 244 | 2.6 | 3.5 | 0.00 | 0.00 | 0.00 | 58 | 1017.1 |
| 20260504201308 | 86 | 202 | 2.6 | 2.6 | 0.00 | 0.00 | 0.00 | 58 | 1017.1 |
| 20260504200805 | 86 | 21 | 0.0 | 2.6 | 0.00 | 0.00 | 0.00 | 59 | 1017.2 |
| 20260504200301 | 86 | 307 | 1.7 | 1.7 | 0.00 | 0.00 | 0.00 | 57 | 1017.2 |
| 20260504195757 | 86 | 269 | 1.7 | 2.6 | 0.00 | 0.00 | 0.00 | 58 | 1017.2 |
| 20260504195253 | 87 | 50 | 0.9 | 1.7 | 0.00 | 0.00 | 0.00 | 57 | 1017.1 |
| 20260504194750 | 87 | 313 | 1.7 | 1.7 | 0.00 | 0.00 | 0.00 | 57 | 1017.2 |
| 20260504194247 | 87 | 249 | 0.0 | 5.2 | 0.00 | 0.00 | 0.00 | 57 | 1017.2 |
| 20260504193743 | 87 | 342 | 0.0 | 1.7 | 0.00 | 0.00 | 0.00 | 57 | 1017.2 |
| 20260504193241 | 87 | 43 | 0.0 | 0.9 | 0.00 | 0.00 | 0.00 | 58 | 1017.1 |
| 20260504192739 | 86 | 260 | 0.0 | 0.9 | 0.00 | 0.00 | 0.00 | 56 | 1017.3 |
| 20260504192237 | 87 | 299 | 0.9 | 1.7 | 0.00 | 0.00 | 0.00 | 57 | 1017.3 |
| 20260504191735 | 88 | 291 | 0.9 | 2.6 | 0.00 | 0.00 | 0.00 | 54 | 1017.2 |
| 20260504191232 | 87 | 265 | 0.9 | 6.1 | 0.00 | 0.00 | 0.00 | 54 | 1017.5 |
| 20260504190727 | 88 | 249 | 0.9 | 3.5 | 0.00 | 0.00 | 0.00 | 53 | 1017.2 |
| 20260504190224 | 88 | 8 | 0.9 | 5.2 | 0.00 | 0.00 | 0.00 | 52 | 1017.3 |
| 20260504185720 | 88 | 259 | 3.5 | 5.2 | 0.00 | 0.00 | 0.00 | 51 | 1017.2 |
| 20260504185217 | 89 | 247 | 2.6 | 2.6 | 0.00 | 0.00 | 0.00 | 50 | 1017.5 |
| 20260504184713 | 91 | 214 | 0.0 | 0.9 | 0.00 | 0.00 | 0.00 | 51 | 1017.2 |
| 20260504184209 | 90 | 246 | 0.0 | 0.0 | 0.00 | 0.00 | 0.00 | 50 | 1017.2 |
| 20260504183705 | 90 | 212 | 0.9 | 0.9 | 0.00 | 0.00 | 0.00 | 52 | 1017.4 |
| 20260504183202 | 90 | 212 | 1.7 | 5.2 | 0.00 | 0.00 | 0.00 | 50 | 1017.7 |
| 20260504182700 | 90 | 121 | 0.0 | 1.7 | 0.00 | 0.00 | 0.00 | 49 | 1017.5 |
| 20260504182157 | 90 | 238 | 0.9 | 2.6 | 0.00 | 0.00 | 0.00 | 49 | 1017.7 |
| 20260504181655 | 90 | 208 | 0.0 | 0.9 | 0.00 | 0.00 | 0.00 | 49 | 1017.7 |
| 20260504181152 | 89 | 18 | 0.9 | 1.7 | 0.00 | 0.00 | 0.00 | 53 | 1017.7 |
| 20260504180651 | 90 | 92 | 0.0 | 0.9 | 0.00 | 0.00 | 0.00 | 50 | 1017.8 |
| 20260504180149 | 90 | 318 | 0.0 | 0.9 | 0.00 | 0.00 | 0.00 | 51 | 1017.6 |
| 20260504175646 | 89 | 281 | 1.7 | 5.2 | 0.00 | 0.00 | 0.00 | 47 | 1017.9 |
| 20260504175143 | 89 | 226 | 0.0 | 1.7 | 0.00 | 0.00 | 0.00 | 46 | 1018.0 |
| 20260504174641 | 90 | 150 | 0.0 | 2.6 | 0.00 | 0.00 | 0.00 | 44 | 1018.1 |
| 20260504174137 | 89 | 310 | 0.9 | 2.6 | 0.00 | 0.00 | 0.00 | 45 | 1018.0 |
| 20260504173635 | 89 | 256 | 0.0 | 1.7 | 0.00 | 0.00 | 0.00 | 51 | 1018.2 |
| 20260504173132 | 89 | 242 | 0.9 | 1.7 | 0.00 | 0.00 | 0.00 | 53 | 1018.2 |
| 20260504172628 | 88 | 239 | 0.0 | 2.6 | 0.00 | 0.00 | 0.00 | 63 | 1018.2 |
| 20260504172125 | 88 | 335 | 0.9 | 1.7 | 0.00 | 0.00 | 0.00 | 67 | 1018.3 |
| 20260504171621 | 87 | 78 | 0.0 | 0.0 | 0.00 | 0.00 | 0.00 | 72 | 1018.3 |
| 20260504171119 | 86 | 184 | 0.0 | 0.9 | 0.00 | 0.00 | 0.00 | 72 | 1018.5 |
| 20260504170615 | 86 | 125 | 0.9 | 1.7 | 0.00 | 0.00 | 0.00 | 72 | 1018.4 |
| 20260504170113 | 86 | 63 | 0.0 | 1.7 | 0.00 | 0.00 | 0.00 | 70 | 1018.4 |
| 20260504150958 | 87 | 35 | 1.7 | 1.7 | 0.00 | 0.00 | 0.00 | 58 | 1019.3 |
| 20260504150455 | 87 | 194 | 0.9 | 3.5 | 0.00 | 0.00 | 0.00 | 59 | 1019.3 |
| 20260504140921 | 85 | 335 | 0.0 | 2.6 | 0.00 | 0.00 | 0.00 | 66 | 1019.6 |
| 20260504140418 | 84 | 286 | 1.7 | 5.2 | 0.00 | 0.00 | 0.00 | 60 | 1019.5 |
| 20260504130343 | 79 | 245 | 2.6 | 5.2 | 0.00 | 0.00 | 0.00 | 72 | 1019.5 |
| 20260504120306 | 72 | 202 | 0.0 | 0.0 | 0.00 | 0.00 | 0.00 | 96 | 1019.4 |
| 20260504110230 | 67 | 165 | 0.0 | 0.0 | 0.00 | 0.00 | 0.00 | 96 | 1019.4 |
| 20260504100154 | 67 | 165 | 0.0 | 0.0 | 0.00 | 0.00 | 0.00 | 96 | 1019.1 |
| 20260504090116 | 67 | 165 | 0.0 | 0.0 | 0.00 | 0.00 | 0.00 | 96 | 1019.1 |
| 20260504081546 | 67 | 165 | 0.0 | 0.0 | 0.00 | 0.00 | 0.00 | 95 | 1018.3 |
| 20260504081042 | 68 | 165 | 0.0 | 0.0 | 0.00 | 0.00 | 0.00 | 95 | 1018.4 |
| 20260504080539 | 68 | 165 | 0.0 | 0.0 | 0.00 | 0.00 | 0.00 | 95 | 1018.6 |
| 20260504050352 | 69 | 165 | 0.0 | 0.0 | 0.00 | 0.00 | 0.00 | 94 | 1019.2 |
| 20260504045850 | 69 | 165 | 0.0 | 0.0 | 0.00 | 0.00 | 0.00 | 94 | 1019.2 |
| 20260504045350 | 69 | 165 | 0.0 | 0.0 | 0.00 | 0.00 | 0.00 | 94 | 1019.4 |
| 20260504044847 | 69 | 165 | 0.0 | 0.0 | 0.00 | 0.00 | 0.00 | 94 | 1019.3 |
| 20260504044344 | 69 | 165 | 0.0 | 0.0 | 0.00 | 0.00 | 0.00 | 94 | 1019.6 |
| 20260504043841 | 69 | 165 | 0.0 | 0.0 | 0.00 | 0.00 | 0.00 | 94 | 1019.6 |
| 20260504043338 | 69 | 166 | 0.0 | 0.0 | 0.00 | 0.00 | 0.00 | 94 | 1019.7 |
| 20260504042835 | 69 | 165 | 0.0 | 0.0 | 0.00 | 0.00 | 0.00 | 94 | 1019.8 |
| 20260504042332 | 69 | 165 | 0.0 | 0.0 | 0.00 | 0.00 | 0.00 | 94 | 1020.1 |
| 20260504041828 | 69 | 166 | 0.0 | 0.0 | 0.00 | 0.00 | 0.00 | 94 | 1019.8 |
| 20260504041324 | 69 | 165 | 0.0 | 0.0 | 0.00 | 0.00 | 0.00 | 94 | 1020.1 |
| 20260504040821 | 69 | 166 | 0.0 | 0.0 | 0.00 | 0.00 | 0.00 | 94 | 1020.3 |
| 20260504040319 | 70 | 165 | 0.0 | 0.0 | 0.00 | 0.00 | 0.00 | 94 | 1020.3 |
| 20260504035814 | 70 | 165 | 0.0 | 0.0 | 0.00 | 0.01 | 0.01 | 94 | 1020.1 |
| 20260504035312 | 70 | 166 | 0.0 | 0.0 | 0.00 | 0.01 | 0.01 | 94 | 1020.0 |
| 20260504034809 | 70 | 166 | 0.0 | 0.0 | 0.00 | 0.01 | 0.01 | 94 | 1020.2 |
| 20260504034306 | 70 | 166 | 0.0 | 0.0 | 0.00 | 0.01 | 0.01 | 94 | 1020.4 |
| 20260504033803 | 70 | 166 | 0.0 | 0.0 | 0.00 | 0.01 | 0.01 | 94 | 1020.4 |
| 20260504033301 | 70 | 166 | 0.0 | 0.0 | 0.00 | 0.01 | 0.01 | 94 | 1020.3 |
| 20260504032757 | 70 | 166 | 0.0 | 0.0 | 0.00 | 0.01 | 0.01 | 94 | 1020.2 |
| 20260504032254 | 70 | 166 | 0.0 | 0.0 | 0.00 | 0.01 | 0.01 | 94 | 1020.5 |
| 20260504031751 | 71 | 166 | 0.0 | 0.0 | 0.00 | 0.01 | 0.01 | 94 | 1020.3 |
| 20260504031249 | 71 | 166 | 0.0 | 0.0 | 0.00 | 0.01 | 0.01 | 94 | 1020.4 |
| 20260504030744 | 71 | 166 | 0.0 | 0.0 | 0.00 | 0.01 | 0.01 | 94 | 1020.2 |
| 20260504030242 | 71 | 166 | 0.0 | 0.0 | 0.00 | 0.01 | 0.01 | 94 | 1020.3 |
| 20260504025738 | 71 | 166 | 0.0 | 0.0 | 0.00 | 0.01 | 0.01 | 93 | 1020.5 |
| 20260504025235 | 71 | 165 | 0.0 | 0.0 | 0.00 | 0.01 | 0.01 | 93 | 1020.4 |
| 20260504024732 | 71 | 166 | 0.0 | 0.0 | 0.00 | 0.01 | 0.01 | 93 | 1020.3 |
| 20260504024229 | 72 | 166 | 0.0 | 0.0 | 0.00 | 0.01 | 0.01 | 93 | 1020.2 |
| 20260504023726 | 72 | 166 | 0.0 | 0.0 | 0.00 | 0.01 | 0.01 | 93 | 1020.2 |
| 20260504023221 | 72 | 165 | 0.0 | 0.0 | 0.00 | 0.01 | 0.01 | 93 | 1020.0 |
| 20260504022718 | 72 | 165 | 0.0 | 0.0 | 0.00 | 0.01 | 0.01 | 93 | 1019.9 |
| 20260504022214 | 72 | 166 | 0.0 | 0.0 | 0.00 | 0.01 | 0.01 | 93 | 1019.9 |
| 20260504021712 | 72 | 165 | 0.0 | 0.0 | 0.00 | 0.01 | 0.01 | 93 | 1019.9 |
| 20260504021209 | 72 | 166 | 0.0 | 0.0 | 0.00 | 0.01 | 0.01 | 93 | 1019.9 |
| 20260504020705 | 72 | 165 | 0.0 | 0.0 | 0.00 | 0.01 | 0.01 | 93 | 1019.6 |
| 20260504020201 | 72 | 165 | 0.0 | 0.0 | 0.00 | 0.01 | 0.01 | 93 | 1019.7 |
| 20260504015658 | 73 | 166 | 0.0 | 0.0 | 0.00 | 0.01 | 0.01 | 93 | 1019.8 |
| 20260504015154 | 73 | 166 | 0.0 | 0.0 | 0.00 | 0.01 | 0.01 | 93 | 1019.7 |
| 20260504014650 | 73 | 166 | 0.0 | 0.0 | 0.00 | 0.01 | 0.01 | 93 | 1019.6 |
| 20260504014148 | 73 | 166 | 0.0 | 0.0 | 0.00 | 0.01 | 0.01 | 93 | 1019.6 |
| 20260504013645 | 73 | 166 | 0.0 | 0.0 | 0.00 | 0.01 | 0.01 | 93 | 1019.5 |
| 20260504013142 | 73 | 166 | 0.0 | 0.0 | 0.00 | 0.01 | 0.01 | 92 | 1019.5 |
| 20260504012639 | 73 | 166 | 0.0 | 0.0 | 0.00 | 0.01 | 0.01 | 92 | 1019.6 |
| 20260504012137 | 73 | 166 | 0.0 | 0.0 | 0.00 | 0.01 | 0.01 | 92 | 1019.6 |
| 20260504011633 | 73 | 166 | 0.0 | 0.0 | 0.00 | 0.01 | 0.01 | 92 | 1019.2 |
| 20260504011130 | 73 | 166 | 0.0 | 0.0 | 0.00 | 0.01 | 0.01 | 92 | 1019.4 |
| 20260504010626 | 73 | 166 | 0.0 | 0.0 | 0.00 | 0.01 | 0.01 | 92 | 1019.5 |
| 20260504010122 | 73 | 166 | 0.0 | 0.0 | 0.00 | 0.01 | 0.01 | 92 | 1019.3 |
| 20260504005619 | 73 | 166 | 0.0 | 0.0 | 0.00 | 0.01 | 0.01 | 92 | 1019.4 |
| 20260504005116 | 73 | 166 | 0.0 | 0.0 | 0.00 | 0.01 | 0.01 | 92 | 1019.4 |
| 20260504004614 | 74 | 166 | 0.0 | 0.0 | 0.00 | 0.01 | 0.01 | 92 | 1019.1 |
| 20260504004111 | 74 | 166 | 0.0 | 0.0 | 0.00 | 0.01 | 0.01 | 92 | 1019.2 |
| 20260504003607 | 74 | 166 | 0.0 | 0.0 | 0.00 | 0.01 | 0.01 | 92 | 1019.3 |
| 20260504003104 | 74 | 166 | 0.0 | 0.0 | 0.00 | 0.01 | 0.01 | 92 | 1019.1 |
| 20260504002601 | 74 | 166 | 0.0 | 0.0 | 0.00 | 0.01 | 0.01 | 91 | 1018.9 |
| 20260504002058 | 74 | 166 | 0.0 | 0.0 | 0.00 | 0.01 | 0.01 | 91 | 1018.9 |
| 20260504001556 | 74 | 166 | 0.0 | 0.0 | 0.00 | 0.01 | 0.01 | 91 | 1018.9 |
| 20260504001051 | 74 | 166 | 0.0 | 0.0 | 0.00 | 0.01 | 0.01 | 91 | 1018.9 |
| 20260504000549 | 75 | 166 | 0.0 | 0.0 | 0.00 | 0.01 | 0.01 | 91 | 1018.8 |
| 20260504000046 | 75 | 166 | 0.0 | 0.0 | 0.00 | 0.01 | 0.01 | 90 | 1018.7 |
| 20260503235544 | 75 | 166 | 0.0 | 0.0 | 0.00 | 0.01 | 0.01 | 90 | 1018.7 |
| 20260503235041 | 75 | 166 | 0.0 | 0.0 | 0.00 | 0.01 | 0.01 | 91 | 1018.7 |
| 20260503234538 | 75 | 166 | 0.0 | 0.0 | 0.00 | 0.01 | 0.01 | 90 | 1018.6 |
| 20260503234037 | 75 | 166 | 0.0 | 0.0 | 0.00 | 0.01 | 0.01 | 90 | 1018.4 |
| 20260503233533 | 75 | 166 | 0.0 | 0.0 | 0.00 | 0.01 | 0.01 | 90 | 1018.8 |
| 20260503233029 | 75 | 166 | 0.0 | 0.0 | 0.00 | 0.01 | 0.01 | 90 | 1018.4 |
| 20260503232526 | 75 | 166 | 0.0 | 0.0 | 0.00 | 0.01 | 0.01 | 90 | 1018.5 |
| 20260503232024 | 76 | 166 | 0.0 | 0.0 | 0.00 | 0.01 | 0.01 | 89 | 1018.4 |
| 20260503231521 | 76 | 166 | 0.0 | 0.0 | 0.00 | 0.01 | 0.01 | 89 | 1018.3 |
| 20260503231018 | 76 | 166 | 0.0 | 0.0 | 0.00 | 0.01 | 0.01 | 89 | 1018.3 |
| 20260503230514 | 76 | 166 | 0.0 | 0.0 | 0.00 | 0.01 | 0.01 | 89 | 1018.4 |
| 20260503230012 | 77 | 166 | 0.0 | 0.0 | 0.00 | 0.01 | 0.01 | 88 | 1018.2 |
| 20260503225508 | 77 | 166 | 0.0 | 0.0 | 0.00 | 0.01 | 0.01 | 88 | 1018.0 |
| 20260503225004 | 77 | 166 | 0.0 | 0.0 | 0.00 | 0.01 | 0.01 | 88 | 1018.1 |
| 20260503224501 | 77 | 166 | 0.0 | 0.0 | 0.00 | 0.01 | 0.01 | 87 | 1018.1 |
| 20260503223959 | 78 | 166 | 0.0 | 0.0 | 0.00 | 0.01 | 0.01 | 87 | 1018.0 |
| 20260503223457 | 78 | 166 | 0.0 | 0.0 | 0.00 | 0.01 | 0.01 | 87 | 1018.0 |
| 20260503222952 | 78 | 166 | 0.0 | 0.0 | 0.00 | 0.01 | 0.01 | 87 | 1018.0 |
| 20260503222451 | 78 | 166 | 0.0 | 0.0 | 0.00 | 0.01 | 0.01 | 86 | 1017.9 |
| 20260503221948 | 79 | 166 | 0.0 | 0.0 | 0.00 | 0.01 | 0.01 | 86 | 1017.9 |
| 20260503221447 | 79 | 166 | 0.0 | 0.0 | 0.00 | 0.01 | 0.01 | 85 | 1017.9 |
| 20260503220943 | 79 | 166 | 0.0 | 0.0 | 0.00 | 0.01 | 0.01 | 86 | 1017.7 |
| 20260503220439 | 79 | 166 | 0.0 | 0.0 | 0.00 | 0.01 | 0.01 | 85 | 1017.8 |
| 20260503215937 | 79 | 166 | 0.0 | 0.0 | 0.00 | 0.01 | 0.01 | 85 | 1017.7 |
| 20260503215433 | 78 | 166 | 0.0 | 0.0 | 0.00 | 0.01 | 0.01 | 84 | 1017.7 |
| 20260503214931 | 79 | 166 | 0.0 | 0.0 | 0.00 | 0.01 | 0.01 | 84 | 1017.7 |
| 20260503214428 | 79 | 166 | 0.0 | 0.0 | 0.00 | 0.01 | 0.01 | 84 | 1017.5 |
| 20260503213925 | 79 | 166 | 0.0 | 0.0 | 0.00 | 0.01 | 0.01 | 84 | 1017.9 |
| 20260503213424 | 79 | 166 | 0.0 | 0.0 | 0.00 | 0.01 | 0.01 | 83 | 1017.9 |
| 20260503212920 | 79 | 166 | 0.0 | 0.0 | 0.00 | 0.01 | 0.01 | 82 | 1018.0 |
| 20260503212418 | 79 | 166 | 0.0 | 0.0 | 0.00 | 0.01 | 0.01 | 82 | 1017.8 |
| 20260503211915 | 79 | 166 | 0.0 | 0.0 | 0.00 | 0.01 | 0.01 | 82 | 1017.8 |
| 20260503211412 | 80 | 166 | 0.0 | 0.0 | 0.00 | 0.01 | 0.01 | 82 | 1017.7 |
| 20260503210907 | 80 | 166 | 0.0 | 0.0 | 0.00 | 0.01 | 0.01 | 82 | 1017.7 |
| 20260503210405 | 80 | 166 | 0.0 | 0.0 | 0.00 | 0.01 | 0.01 | 82 | 1017.6 |
| 20260503205904 | 80 | 166 | 0.0 | 0.0 | 0.00 | 0.01 | 0.01 | 81 | 1017.7 |
| 20260503205402 | 81 | 166 | 0.0 | 0.0 | 0.00 | 0.01 | 0.01 | 79 | 1017.7 |
| 20260503204858 | 81 | 166 | 0.0 | 0.0 | 0.00 | 0.01 | 0.01 | 78 | 1017.5 |
| 20260503204356 | 81 | 166 | 0.0 | 0.0 | 0.00 | 0.01 | 0.01 | 77 | 1017.5 |
| 20260503203853 | 81 | 256 | 0.0 | 0.9 | 0.00 | 0.01 | 0.01 | 74 | 1017.5 |
| 20260503203350 | 82 | 245 | 0.9 | 1.7 | 0.00 | 0.01 | 0.01 | 73 | 1017.5 |
| 20260503202847 | 81 | 312 | 0.0 | 0.9 | 0.00 | 0.01 | 0.01 | 74 | 1017.5 |